Time;durP1;ratioP1;P1;durP2;ratioP2;P2;SDS_P1;SDS_P2;PMS_P1;PMS_P2;Temp;Humidity;BMP_temperature;BMP_pressure;BME280_temperature;BME280_humidity;BME280_pressure;Samples;Min_cycle;Max_cycle;Signal;HPM_P1;HPM_P2
2022/09/09 00:00:53;;;;;;;2.55;0.45;;;18.60;99.90;;;;;;6262680;22;20337;-67
2022/09/09 00:03:27;;;;;;;2.33;0.93;;;18.50;99.90;;;;;;6265565;22;20008;-67
2022/09/09 00:06:07;;;;;;;0.40;0.32;;;18.50;99.90;;;;;;6259365;22;20004;-68
2022/09/09 00:08:56;;;;;;;2.85;0.60;;;18.50;99.90;;;;;;6261743;22;20284;-67
2022/09/09 00:11:37;;;;;;;4.40;0.50;;;18.40;99.90;;;;;;6251944;22;20090;-67
2022/09/09 00:14:13;;;;;;;2.75;1.02;;;18.40;99.90;;;;;;6264513;22;19996;-67
2022/09/09 00:16:47;;;;;;;3.30;0.65;;;18.40;99.90;;;;;;6264191;22;20022;-67
2022/09/09 00:19:29;;;;;;;5.10;0.57;;;18.30;99.90;;;;;;6261681;22;20472;-67
2022/09/09 00:22:07;;;;;;;3.65;0.50;;;18.40;99.90;;;;;;6263696;22;20011;-67
2022/09/09 00:24:51;;;;;;;0.60;0.50;;;18.30;99.90;;;;;;6266232;22;20004;-67
2022/09/09 00:27:23;;;;;;;1.85;0.50;;;18.30;99.90;;;;;;6263718;22;20000;-68
2022/09/09 00:30:26;;;;;;;1.77;0.63;;;18.40;99.90;;;;;;6264507;22;20856;-67
2022/09/09 00:32:59;;;;;;;1.35;0.70;;;18.20;99.90;;;;;;6250152;22;20093;-68
2022/09/09 00:35:33;;;;;;;0.93;0.80;;;18.20;99.90;;;;;;6265563;22;20019;-67
2022/09/09 00:38:12;;;;;;;2.78;0.65;;;18.20;99.90;;;;;;6262831;22;20019;-67
2022/09/09 00:40:55;;;;;;;1.00;0.65;;;18.20;99.90;;;;;;6265889;22;20522;-68
2022/09/09 00:43:36;;;;;;;0.60;0.60;;;18.20;99.90;;;;;;6264792;22;20078;-67
2022/09/09 00:46:45;;;;;;;3.45;1.23;;;18.20;99.90;;;;;;6264576;22;20007;-67
2022/09/09 00:49:40;;;;;;;1.48;0.75;;;18.20;99.90;;;;;;6207821;22;20011;-67
2022/09/09 00:53:04;;;;;;;0.80;0.80;;;18.20;99.90;;;;;;6262641;22;20004;-67
2022/09/09 00:55:56;;;;;;;1.55;0.70;;;18.10;99.90;;;;;;6187770;22;20433;-67
2022/09/09 00:58:21;;;;;;;0.98;0.85;;;18.00;99.90;;;;;;6263177;22;20020;-68
2022/09/09 01:01:01;;;;;;;2.42;0.95;;;18.00;99.90;;;;;;6265324;22;20007;-67
2022/09/09 01:03:33;;;;;;;5.22;0.75;;;17.90;99.90;;;;;;6265800;22;20008;-67
2022/09/09 01:06:04;;;;;;;;;;;17.90;99.90;;;;;;6265558;22;20011;-67
2022/09/09 01:09:01;;;;;;;2.10;0.80;;;17.90;99.90;;;;;;6262132;22;19911;-67
2022/09/09 01:11:47;;;;;;;0.90;0.77;;;17.90;99.90;;;;;;6266646;22;20033;-67
2022/09/09 01:14:34;;;;;;;1.58;0.80;;;17.80;99.90;;;;;;6263399;22;20007;-67
2022/09/09 01:17:17;;;;;;;2.97;0.77;;;17.80;99.90;;;;;;6262169;22;20019;-67
2022/09/09 01:19:42;;;;;;;1.00;0.90;;;17.70;99.90;;;;;;6257344;22;20000;-68
2022/09/09 01:22:19;;;;;;;0.98;0.77;;;17.70;99.90;;;;;;6262087;22;20018;-67
2022/09/09 01:25:25;;;;;;;1.13;0.95;;;17.70;99.90;;;;;;6262637;22;20000;-67
2022/09/09 01:27:53;;;;;;;2.35;1.27;;;17.80;99.90;;;;;;6247089;22;20008;-67
2022/09/09 01:30:19;;;;;;;1.95;0.73;;;17.80;99.90;;;;;;6262942;22;20507;-68
2022/09/09 01:32:52;;;;;;;1.08;0.98;;;17.80;99.90;;;;;;6262878;22;20066;-67
2022/09/09 01:35:26;;;;;;;2.60;0.57;;;17.80;99.90;;;;;;6264344;22;20011;-67
2022/09/09 01:37:52;;;;;;;1.92;1.20;;;17.80;99.90;;;;;;6263131;22;20012;-66
2022/09/09 01:40:17;;;;;;;1.85;0.88;;;17.90;99.90;;;;;;6264922;22;20023;-68
2022/09/09 01:42:43;;;;;;;2.20;0.70;;;17.90;99.90;;;;;;6264993;22;20319;-67
2022/09/09 01:45:09;;;;;;;3.83;0.90;;;17.90;99.90;;;;;;6265105;22;20004;-67
2022/09/09 01:47:36;;;;;;;2.25;0.98;;;17.80;99.90;;;;;;6265014;22;20008;-68
2022/09/09 01:50:02;;;;;;;2.30;0.82;;;17.90;99.90;;;;;;6259092;22;20003;-66
2022/09/09 01:52:29;;;;;;;1.13;0.70;;;17.80;99.90;;;;;;6259993;22;20802;-67
2022/09/09 01:54:55;;;;;;;3.17;0.75;;;17.80;99.90;;;;;;6265338;22;20007;-68
2022/09/09 01:57:38;;;;;;;1.77;0.57;;;17.90;99.90;;;;;;6262751;22;20037;-80
2022/09/09 02:00:10;;;;;;;1.17;0.75;;;17.90;99.90;;;;;;6263738;22;20444;-75
2022/09/09 02:02:46;;;;;;;4.32;0.75;;;17.90;99.90;;;;;;6259480;22;20007;-75
2022/09/09 02:05:40;;;;;;;0.77;0.57;;;17.90;99.90;;;;;;6261731;22;20004;-75
2022/09/09 02:08:25;;;;;;;1.52;0.90;;;18.00;99.90;;;;;;6263458;22;20000;-74
2022/09/09 02:11:01;;;;;;;2.45;0.73;;;18.10;99.90;;;;;;6263274;22;20087;-74
2022/09/09 02:13:28;;;;;;;2.05;0.52;;;18.00;99.90;;;;;;6263702;22;20004;-74
2022/09/09 02:16:08;;;;;;;2.63;0.85;;;18.10;99.90;;;;;;6264592;22;20003;-74
2022/09/09 02:18:51;;;;;;;3.40;0.75;;;18.10;99.90;;;;;;6263336;22;20000;-68
2022/09/09 02:21:18;;;;;;;3.10;0.63;;;18.00;99.90;;;;;;6258326;22;20007;-69
2022/09/09 02:23:46;;;;;;;2.00;0.52;;;18.00;99.90;;;;;;6263404;22;20008;-68
2022/09/09 02:26:19;;;;;;;1.33;0.70;;;17.90;99.90;;;;;;6259459;22;20007;-69
2022/09/09 02:28:47;;;;;;;4.43;0.60;;;18.00;99.90;;;;;;6264414;22;20081;-69
2022/09/09 02:31:17;;;;;;;0.50;0.50;;;17.90;99.90;;;;;;6261069;22;20000;-69
2022/09/09 02:33:47;;;;;;;0.70;0.70;;;17.80;99.90;;;;;;6263416;22;20019;-68
2022/09/09 02:36:16;;;;;;;1.83;0.60;;;17.80;99.90;;;;;;6264929;22;20463;-68
2022/09/09 02:38:50;;;;;;;2.97;0.90;;;17.70;99.90;;;;;;6261233;22;20075;-68
2022/09/09 02:41:42;;;;;;;2.53;0.75;;;17.70;99.90;;;;;;6263131;22;20086;-68
2022/09/09 02:44:13;;;;;;;3.05;0.70;;;17.70;99.90;;;;;;6259017;22;19999;-67
2022/09/09 02:46:51;;;;;;;2.00;0.50;;;17.60;99.90;;;;;;6264634;22;20022;-68
2022/09/09 02:49:37;;;;;;;1.15;0.57;;;17.50;99.90;;;;;;6263856;22;20002;-68
2022/09/09 02:52:17;;;;;;;1.20;0.73;;;17.50;99.90;;;;;;6259017;22;20004;-67
2022/09/09 02:54:43;;;;;;;1.65;0.63;;;17.50;99.90;;;;;;6264581;22;20031;-66
2022/09/09 02:57:18;;;;;;;4.78;0.70;;;17.40;99.90;;;;;;6262727;22;20912;-66
2022/09/09 02:59:45;;;;;;;0.43;0.43;;;17.30;99.90;;;;;;6264269;22;20075;-66
2022/09/09 03:02:12;;;;;;;2.33;0.55;;;17.30;99.90;;;;;;6260958;22;20036;-67
2022/09/09 03:04:38;;;;;;;2.67;0.50;;;17.30;99.90;;;;;;6264935;22;20013;-67
2022/09/09 03:07:04;;;;;;;1.05;0.47;;;17.30;99.90;;;;;;6264426;22;20079;-66
2022/09/09 03:09:30;;;;;;;2.38;0.40;;;17.30;99.90;;;;;;6263158;22;20365;-67
2022/09/09 03:11:56;;;;;;;0.63;0.47;;;17.30;99.90;;;;;;6262980;22;20015;-66
2022/09/09 03:14:24;;;;;;;0.80;0.43;;;17.30;99.90;;;;;;6260519;22;20004;-67
2022/09/09 03:16:51;;;;;;;1.90;0.50;;;17.30;99.90;;;;;;6263392;22;20094;-67
2022/09/09 03:19:18;;;;;;;0.57;0.47;;;17.30;99.90;;;;;;6261444;22;20332;-66
2022/09/09 03:21:44;;;;;;;0.55;0.45;;;17.30;99.90;;;;;;6261143;22;20003;-67
2022/09/09 03:24:10;;;;;;;0.68;0.47;;;17.40;99.90;;;;;;6261754;22;20003;-67
2022/09/09 03:26:37;;;;;;;1.08;0.50;;;17.40;99.90;;;;;;6262736;22;20065;-67
2022/09/09 03:29:06;;;;;;;1.67;0.40;;;17.40;99.90;;;;;;6263129;22;20000;-67
2022/09/09 03:31:35;;;;;;;0.95;0.50;;;17.40;99.90;;;;;;6260271;22;20018;-67
2022/09/09 03:34:01;;;;;;;1.25;0.38;;;17.40;99.90;;;;;;6262440;22;20499;-74
2022/09/09 03:36:28;;;;;;;3.40;0.50;;;17.40;99.90;;;;;;6263379;22;20012;-75
2022/09/09 03:38:54;;;;;;;2.25;0.40;;;17.30;99.90;;;;;;6266318;22;20034;-76
2022/09/09 03:41:23;;;;;;;2.05;0.50;;;17.20;99.90;;;;;;6263842;22;20011;-76
2022/09/09 03:43:52;;;;;;;3.40;0.50;;;17.20;99.90;;;;;;6264959;22;19999;-75
2022/09/09 03:46:23;;;;;;;3.13;0.47;;;17.10;99.90;;;;;;6263646;22;20000;-74
2022/09/09 03:48:48;;;;;;;0.80;0.30;;;17.00;99.90;;;;;;6261021;22;20607;-74
2022/09/09 03:51:15;;;;;;;1.95;0.50;;;17.10;99.90;;;;;;6262318;22;20130;-74
2022/09/09 03:53:41;;;;;;;1.38;0.40;;;17.00;99.90;;;;;;6263204;22;20003;-74
2022/09/09 03:56:07;;;;;;;0.50;0.50;;;17.00;99.90;;;;;;6263383;22;20011;-74
2022/09/09 03:58:34;;;;;;;1.38;0.60;;;17.00;99.90;;;;;;6265965;22;20003;-74
2022/09/09 04:03:46;;;;;;;1.30;0.50;;;17.10;99.90;;;;;;6264203;22;20019;-74
2022/09/09 04:06:13;;;;;;;1.48;0.52;;;17.00;99.90;;;;;;6265598;22;20003;-74
2022/09/09 04:08:39;;;;;;;1.30;0.38;;;16.90;99.90;;;;;;6266009;22;20004;-75
2022/09/09 04:11:06;;;;;;;2.55;0.70;;;16.90;99.90;;;;;;6262835;22;20110;-74
2022/09/09 04:13:34;;;;;;;0.65;0.45;;;16.90;99.90;;;;;;6264123;22;20480;-78
2022/09/09 04:16:02;;;;;;;0.50;0.40;;;16.90;99.90;;;;;;6263909;22;20058;-74
2022/09/09 04:18:28;;;;;;;0.98;0.40;;;16.90;99.90;;;;;;6266302;22;19999;-75
2022/09/09 04:20:54;;;;;;;0.52;0.40;;;16.90;99.90;;;;;;6265588;22;20011;-74
2022/09/09 04:23:20;;;;;;;0.40;0.40;;;16.90;99.90;;;;;;6260623;22;20008;-75
2022/09/09 04:25:47;;;;;;;1.95;0.40;;;16.80;99.90;;;;;;6264084;22;20793;-75
2022/09/09 04:28:17;;;;;;;1.50;0.40;;;16.80;99.90;;;;;;6263744;22;20007;-75
2022/09/09 04:30:43;;;;;;;1.02;0.40;;;16.80;99.90;;;;;;6264676;22;20004;-75
2022/09/09 04:33:12;;;;;;;2.05;0.40;;;16.80;99.90;;;;;;6264164;22;20073;-76
2022/09/09 04:35:38;;;;;;;2.95;0.82;;;16.80;99.90;;;;;;6263738;22;20003;-74
2022/09/09 04:38:05;;;;;;;0.90;0.50;;;16.80;99.90;;;;;;6265209;22;20024;-74
2022/09/09 04:40:31;;;;;;;1.95;0.60;;;16.70;99.90;;;;;;6265364;22;20534;-74
2022/09/09 04:43:02;;;;;;;0.47;0.40;;;16.70;99.90;;;;;;6263024;22;20057;-73
2022/09/09 04:45:28;;;;;;;0.33;0.33;;;16.70;99.90;;;;;;6261673;22;20015;-74
2022/09/09 04:47:54;;;;;;;2.75;0.50;;;16.80;99.90;;;;;;6267277;22;19999;-75
2022/09/09 04:50:20;;;;;;;0.77;0.60;;;16.80;99.90;;;;;;6265462;22;20073;-75
2022/09/09 04:52:45;;;;;;;0.50;0.35;;;16.80;99.90;;;;;;6260815;22;20000;-74
2022/09/09 04:55:12;;;;;;;13.85;1.45;;;16.80;99.90;;;;;;6262737;22;20003;-74
2022/09/09 04:57:38;;;;;;;2.90;0.47;;;16.80;99.90;;;;;;6265116;22;20042;-75
2022/09/09 05:00:05;;;;;;;1.77;0.52;;;16.80;99.90;;;;;;6264522;22;20010;-75
2022/09/09 05:02:31;;;;;;;3.05;0.50;;;16.90;99.90;;;;;;6258821;22;20004;-75
2022/09/09 05:04:58;;;;;;;1.65;0.50;;;16.80;99.90;;;;;;6261850;22;20007;-73
2022/09/09 05:07:23;;;;;;;3.42;0.50;;;16.80;99.90;;;;;;6265264;22;20007;-74
2022/09/09 05:09:49;;;;;;;1.95;0.60;;;16.90;99.90;;;;;;6264202;22;20150;-74
2022/09/09 05:12:19;;;;;;;0.95;0.60;;;16.80;99.90;;;;;;6265128;22;20014;-73
2022/09/09 05:14:44;;;;;;;1.88;0.40;;;16.90;99.90;;;;;;6265031;22;20067;-69
2022/09/09 05:17:10;;;;;;;4.13;0.60;;;17.00;99.90;;;;;;6263405;22;20510;-73
2022/09/09 05:19:36;;;;;;;1.80;0.60;;;17.00;99.90;;;;;;6264806;22;20008;-70
2022/09/09 05:22:02;;;;;;;2.45;0.80;;;17.00;99.90;;;;;;6264381;22;20034;-73
2022/09/09 05:24:27;;;;;;;0.60;0.60;;;17.10;99.90;;;;;;6258819;22;20069;-72
2022/09/09 05:26:53;;;;;;;1.90;0.40;;;17.10;99.90;;;;;;6263329;22;20010;-74
2022/09/09 05:29:19;;;;;;;0.50;0.50;;;17.20;99.90;;;;;;6262799;22;20026;-74
2022/09/09 05:31:45;;;;;;;0.40;0.40;;;17.10;99.90;;;;;;6262063;22;20035;-73
2022/09/09 05:34:11;;;;;;;2.58;0.70;;;17.10;99.90;;;;;;6262498;22;20003;-74
2022/09/09 05:36:37;;;;;;;2.25;0.55;;;17.10;99.90;;;;;;6265240;22;20004;-74
2022/09/09 05:39:03;;;;;;;2.80;0.60;;;17.10;99.90;;;;;;6260461;22;20007;-74
2022/09/09 05:41:29;;;;;;;0.40;0.40;;;17.10;99.90;;;;;;6265202;22;20309;-74
2022/09/09 05:43:55;;;;;;;0.50;0.50;;;17.10;99.90;;;;;;6263835;22;20088;-74
2022/09/09 05:46:23;;;;;;;5.85;0.55;;;17.10;99.90;;;;;;6264095;22;20036;-74
2022/09/09 05:48:51;;;;;;;2.30;0.60;;;17.10;99.90;;;;;;6263746;22;20059;-75
2022/09/09 05:51:27;;;;;;;2.95;0.65;;;17.10;99.90;;;;;;6265630;22;20607;-74
2022/09/09 05:53:55;;;;;;;1.38;0.55;;;17.20;99.90;;;;;;6256516;22;20066;-75
2022/09/09 05:56:24;;;;;;;2.20;0.85;;;17.20;99.90;;;;;;6261346;22;20109;-75
2022/09/09 05:58:51;;;;;;;0.50;0.50;;;17.40;99.90;;;;;;6262593;22;20016;-75
2022/09/09 06:01:19;;;;;;;1.15;0.40;;;17.50;99.90;;;;;;6262921;22;20010;-74
2022/09/09 06:03:47;;;;;;;1.70;0.60;;;17.50;99.90;;;;;;6257642;22;20016;-74
2022/09/09 06:06:16;;;;;;;1.88;0.57;;;17.40;99.90;;;;;;6263328;22;20010;-74
2022/09/09 06:08:44;;;;;;;3.15;0.65;;;17.40;99.90;;;;;;6263189;22;20003;-74
2022/09/09 06:11:21;;;;;;;4.53;0.60;;;17.40;99.90;;;;;;6257727;22;20053;-74
2022/09/09 06:13:47;;;;;;;2.05;0.55;;;17.50;99.90;;;;;;6266036;22;20000;-74
2022/09/09 06:16:18;;;;;;;3.17;0.40;;;17.50;99.90;;;;;;6260921;22;20012;-74
2022/09/09 06:18:44;;;;;;;1.60;0.40;;;17.60;99.90;;;;;;6265555;22;20007;-74
2022/09/09 06:21:18;;;;;;;0.80;0.45;;;17.60;99.90;;;;;;6262875;22;20034;-73
2022/09/09 06:23:44;;;;;;;0.35;0.35;;;17.60;99.90;;;;;;6264502;22;20375;-76
2022/09/09 06:26:18;;;;;;;1.23;0.60;;;17.70;99.90;;;;;;6256737;22;20038;-75
2022/09/09 06:28:45;;;;;;;0.30;0.30;;;17.80;99.90;;;;;;6265259;22;20007;-74
2022/09/09 06:31:14;;;;;;;2.67;0.80;;;18.00;99.90;;;;;;6257958;22;19996;-74
2022/09/09 06:33:41;;;;;;;4.10;0.80;;;18.00;99.90;;;;;;6262046;22;20118;-75
2022/09/09 06:36:14;;;;;;;2.78;0.70;;;18.20;99.90;;;;;;6261101;22;20004;-75
2022/09/09 06:38:44;;;;;;;4.38;0.98;;;18.30;99.90;;;;;;6262761;22;20467;-76
2022/09/09 06:41:12;;;;;;;8.20;1.73;;;18.40;99.90;;;;;;6262679;22;20004;-74
2022/09/09 06:43:38;;;;;;;2.78;0.85;;;18.50;99.90;;;;;;6259531;22;20493;-67
2022/09/09 06:46:05;;;;;;;3.22;0.93;;;18.60;99.90;;;;;;6263743;22;20008;-68
2022/09/09 06:48:32;;;;;;;1.90;0.88;;;18.60;99.90;;;;;;6264802;22;20010;-68
2022/09/09 06:51:16;;;;;;;3.03;0.60;;;18.70;99.90;;;;;;6263181;22;20061;-68
2022/09/09 06:53:43;;;;;;;1.83;0.80;;;18.90;99.90;;;;;;6264022;22;20003;-68
2022/09/09 06:56:27;;;;;;;0.73;0.30;;;19.10;99.90;;;;;;6255288;22;20082;-68
2022/09/09 06:58:54;;;;;;;3.95;0.55;;;19.30;99.90;;;;;;6262386;22;20008;-68
2022/09/09 07:01:32;;;;;;;0.50;0.40;;;19.40;99.90;;;;;;6260171;22;20014;-67
2022/09/09 07:03:59;;;;;;;3.53;0.65;;;19.50;99.90;;;;;;6262995;22;20007;-68
2022/09/09 07:06:29;;;;;;;2.67;0.30;;;19.60;99.90;;;;;;6262088;22;20011;-68
2022/09/09 07:08:58;;;;;;;5.38;0.63;;;19.70;99.90;;;;;;6264219;22;20015;-68
2022/09/09 07:11:27;;;;;;;0.50;0.45;;;19.90;99.90;;;;;;6261077;22;20000;-68
2022/09/09 07:13:53;;;;;;;0.75;0.35;;;19.90;99.90;;;;;;6259411;22;20004;-68
2022/09/09 07:16:20;;;;;;;1.75;0.40;;;20.10;99.90;;;;;;6260517;22;20081;-67
2022/09/09 07:18:46;;;;;;;1.65;0.40;;;20.20;99.90;;;;;;6264786;22;20061;-67
2022/09/09 07:21:14;;;;;;;2.17;0.40;;;20.30;99.90;;;;;;6261839;22;20007;-67
2022/09/09 07:23:41;;;;;;;7.25;0.52;;;20.50;99.90;;;;;;6261370;22;20003;-68
2022/09/09 07:26:27;;;;;;;0.40;0.30;;;20.60;99.90;;;;;;6260599;22;20325;-68
2022/09/09 07:28:53;;;;;;;0.68;0.30;;;20.70;99.90;;;;;;6263770;22;20077;-67
2022/09/09 07:31:21;;;;;;;0.60;0.40;;;20.90;99.90;;;;;;6263626;22;20019;-67
2022/09/09 07:33:48;;;;;;;3.03;0.65;;;20.90;99.90;;;;;;6262445;22;20019;-67
2022/09/09 07:36:23;;;;;;;2.08;0.40;;;21.00;99.90;;;;;;6264081;22;20185;-67
2022/09/09 07:38:54;;;;;;;0.30;0.30;;;21.10;99.90;;;;;;6266242;22;20106;-67
2022/09/09 07:41:24;;;;;;;0.47;0.40;;;21.20;99.90;;;;;;6264418;22;20753;-67
2022/09/09 07:43:50;;;;;;;1.98;0.35;;;21.30;99.90;;;;;;6263620;22;20008;-68
2022/09/09 07:46:19;;;;;;;0.80;0.40;;;21.30;99.90;;;;;;6260544;22;20520;-67
2022/09/09 07:48:51;;;;;;;0.73;0.40;;;21.40;99.90;;;;;;6262141;22;20003;-66
2022/09/09 07:51:28;;;;;;;0.30;0.30;;;21.60;99.90;;;;;;6262691;22;20007;-68
2022/09/09 07:53:59;;;;;;;2.53;0.47;;;21.70;99.90;;;;;;6262243;22;20069;-67
2022/09/09 07:56:26;;;;;;;4.28;0.60;;;21.70;99.90;;;;;;6258809;22;20034;-68
2022/09/09 07:58:54;;;;;;;2.58;0.40;;;21.80;99.90;;;;;;6262605;22;20003;-67
2022/09/09 08:01:25;;;;;;;3.13;0.50;;;21.90;99.90;;;;;;6260711;22;20083;-67
2022/09/09 08:04:01;;;;;;;1.47;0.40;;;21.80;99.90;;;;;;6263942;22;20004;-67
2022/09/09 08:06:33;;;;;;;1.23;0.50;;;21.70;99.90;;;;;;6260848;22;20015;-67
2022/09/09 08:08:59;;;;;;;;;;;21.80;99.90;;;;;;6264255;22;20004;-68
2022/09/09 08:11:25;;;;;;;2.72;0.50;;;21.90;99.90;;;;;;6262872;22;19994;-68
2022/09/09 08:13:52;;;;;;;1.08;0.35;;;22.00;99.90;;;;;;6265854;22;20499;-68
2022/09/09 08:16:21;;;;;;;1.92;0.70;;;22.10;99.90;;;;;;6261440;22;20086;-68
2022/09/09 08:18:51;;;;;;;0.30;0.30;;;22.20;99.90;;;;;;6260514;22;20007;-67
2022/09/09 08:21:27;;;;;;;1.52;0.40;;;22.40;99.90;;;;;;6261807;22;20010;-67
2022/09/09 08:23:55;;;;;;;0.32;0.20;;;22.70;99.90;;;;;;6265740;22;20098;-66
2022/09/09 08:26:26;;;;;;;0.77;0.30;;;22.80;99.90;;;;;;6261562;22;20012;-67
2022/09/09 08:28:54;;;;;;;0.47;0.20;;;23.00;99.90;;;;;;6263478;22;20006;-67
2022/09/09 08:31:21;;;;;;;0.73;0.50;;;22.90;99.90;;;;;;6263390;22;20007;-67
2022/09/09 08:33:47;;;;;;;0.20;0.20;;;22.90;99.90;;;;;;6263135;22;20099;-67
2022/09/09 08:36:20;;;;;;;1.20;0.43;;;23.00;99.90;;;;;;6262735;22;20086;-66
2022/09/09 08:38:51;;;;;;;0.80;0.75;;;23.10;99.90;;;;;;6262759;22;20007;-67
2022/09/09 08:41:42;;;;;;;0.73;0.30;;;23.10;99.90;;;;;;6265629;22;20778;-67
2022/09/09 08:44:34;;;;;;;0.35;0.20;;;23.10;99.90;;;;;;6265486;22;20015;-67
2022/09/09 08:47:34;;;;;;;0.25;0.20;;;23.20;99.90;;;;;;6259701;22;20014;-67
2022/09/09 08:50:17;;;;;;;0.40;0.30;;;23.20;99.90;;;;;;6263725;22;20007;-67
2022/09/09 08:53:07;;;;;;;1.40;0.35;;;23.40;99.90;;;;;;6261111;22;20010;-67
2022/09/09 08:55:59;;;;;;;0.25;0.20;;;23.50;99.90;;;;;;6260998;22;20003;-67
2022/09/09 08:58:29;;;;;;;0.30;0.30;;;23.60;99.90;;;;;;6259560;22;20475;-67
2022/09/09 09:01:01;;;;;;;0.65;0.20;;;23.70;99.90;;;;;;6262226;22;20007;-68
2022/09/09 09:03:42;;;;;;;0.25;0.20;;;23.70;99.90;;;;;;6257596;22;20069;-67
2022/09/09 09:06:36;;;;;;;0.43;0.30;;;23.60;99.90;;;;;;6263254;22;20008;-67
2022/09/09 09:09:30;;;;;;;2.08;0.40;;;23.60;99.90;;;;;;6262500;22;20011;-66
2022/09/09 09:12:02;;;;;;;1.75;0.20;;;23.60;99.90;;;;;;6261597;22;20006;-67
2022/09/09 09:14:30;;;;;;;;;;;23.50;99.90;;;;;;6260935;22;20069;-66
2022/09/09 09:17:19;;;;;;;0.20;0.20;;;23.60;99.90;;;;;;6263688;22;19911;-68
2022/09/09 09:19:46;;;;;;;0.13;0.13;;;23.70;99.90;;;;;;6260719;22;20278;-67
2022/09/09 09:22:39;;;;;;;0.22;0.22;;;23.80;99.90;;;;;;6264616;22;20572;-67
2022/09/09 09:25:16;;;;;;;1.10;0.30;;;23.90;99.90;;;;;;6263656;22;19999;-67
2022/09/09 09:28:05;;;;;;;2.00;0.30;;;24.00;99.90;;;;;;6263454;22;20003;-67
2022/09/09 09:30:42;;;;;;;0.38;0.30;;;23.90;99.90;;;;;;6262969;22;20031;-67
2022/09/09 09:33:26;;;;;;;0.30;0.30;;;23.90;99.90;;;;;;6264890;22;20028;-67
2022/09/09 09:35:53;;;;;;;0.30;0.28;;;24.00;99.90;;;;;;6264657;22;20010;-67
2022/09/09 09:38:24;;;;;;;0.20;0.20;;;24.00;99.90;;;;;;6262151;22;20046;-67
2022/09/09 09:40:57;;;;;;;12.35;0.52;;;24.00;99.90;;;;;;6264110;22;20134;-66
2022/09/09 09:43:29;;;;;;;0.32;0.20;;;24.00;99.90;;;;;;6264585;22;20000;-67
2022/09/09 09:45:55;;;;;;;0.45;0.20;;;24.00;99.90;;;;;;6259708;22;20004;-66
2022/09/09 09:48:21;;;;;;;0.20;0.20;;;24.00;99.90;;;;;;6264174;22;20087;-66
2022/09/09 09:50:54;;;;;;;0.30;0.22;;;24.20;99.90;;;;;;6263886;22;20393;-67
2022/09/09 09:53:25;;;;;;;0.38;0.30;;;24.30;99.90;;;;;;6264320;22;20015;-67
2022/09/09 09:56:03;;;;;;;1.33;0.15;;;24.40;99.90;;;;;;6262417;22;20408;-66
2022/09/09 09:58:38;;;;;;;0.47;0.20;;;24.30;99.90;;;;;;6258837;22;20038;-66
2022/09/09 10:01:04;;;;;;;2.58;0.20;;;24.40;99.90;;;;;;6261069;22;20034;-67
2022/09/09 10:03:40;;;;;;;1.75;0.30;;;24.40;99.90;;;;;;6263888;22;20758;-68
2022/09/09 10:06:06;;;;;;;6.50;0.60;;;24.40;99.90;;;;;;6263652;22;20049;-66
2022/09/09 10:08:46;;;;;;;3.83;0.30;;;24.40;99.90;;;;;;6263794;22;20368;-67
2022/09/09 10:11:36;;;;;;;0.10;0.10;;;24.50;99.90;;;;;;6263105;22;20065;-67
2022/09/09 10:14:22;;;;;;;0.73;0.20;;;24.60;99.90;;;;;;6265452;22;20007;-68
2022/09/09 10:17:14;;;;;;;4.38;0.35;;;24.80;99.90;;;;;;6255169;22;20038;-66
2022/09/09 10:19:49;;;;;;;2.63;0.20;;;24.60;99.90;;;;;;6226725;22;20039;-66
2022/09/09 10:22:30;;;;;;;0.10;0.10;;;24.60;99.90;;;;;;6261965;22;20035;-67
2022/09/09 10:25:19;;;;;;;1.38;0.38;;;24.60;99.90;;;;;;6261958;22;20003;-67
2022/09/09 10:28:03;;;;;;;0.30;0.30;;;24.60;99.90;;;;;;6262107;22;20003;-67
2022/09/09 10:30:55;;;;;;;0.20;0.20;;;24.70;99.90;;;;;;6259806;22;20012;-67
2022/09/09 10:33:34;;;;;;;0.20;0.13;;;24.70;99.90;;;;;;6261300;22;20061;-67
2022/09/09 10:36:29;;;;;;;0.47;0.47;;;24.80;99.90;;;;;;6263792;22;20011;-67
2022/09/09 10:39:34;;;;;;;0.28;0.28;;;24.90;99.90;;;;;;6262416;22;20076;-67
2022/09/09 10:42:09;;;;;;;0.30;0.30;;;24.90;99.90;;;;;;6260867;22;20073;-66
2022/09/09 10:44:47;;;;;;;0.22;0.22;;;24.80;99.90;;;;;;6265222;22;20087;-67
2022/09/09 10:47:23;;;;;;;2.47;0.47;;;24.70;99.90;;;;;;6262888;22;20100;-65
2022/09/09 10:50:01;;;;;;;5.57;0.30;;;24.80;99.90;;;;;;6263086;22;20257;-67
2022/09/09 10:52:40;;;;;;;0.25;0.25;;;24.70;99.90;;;;;;6265461;22;20007;-75
2022/09/09 10:55:25;;;;;;;0.88;0.28;;;24.70;99.90;;;;;;6262878;22;20010;-73
2022/09/09 10:57:53;;;;;;;5.82;0.40;;;24.70;99.90;;;;;;6264202;22;20054;-72
2022/09/09 11:00:42;;;;;;;0.22;0.22;;;24.80;99.90;;;;;;6255105;22;20006;-74
2022/09/09 11:03:26;;;;;;;2.25;0.60;;;24.70;99.90;;;;;;6264357;22;20148;-74
2022/09/09 11:05:56;;;;;;;1.58;0.55;;;24.70;99.90;;;;;;6259948;22;19999;-75
2022/09/09 11:08:27;;;;;;;0.28;0.20;;;24.80;99.90;;;;;;6263451;22;20007;-74
2022/09/09 11:11:03;;;;;;;1.77;0.30;;;24.80;99.90;;;;;;6263243;22;20406;-76
2022/09/09 11:14:01;;;;;;;2.90;0.30;;;24.70;99.90;;;;;;6266011;22;20019;-78
2022/09/09 11:17:01;;;;;;;1.33;0.30;;;24.50;99.90;;;;;;6211605;22;20016;-74
2022/09/09 11:19:43;;;;;;;0.20;0.20;;;24.50;99.90;;;;;;6261203;22;20004;-74
2022/09/09 11:22:32;;;;;;;1.23;0.15;;;24.40;99.90;;;;;;6259842;22;19999;-75
2022/09/09 11:25:17;;;;;;;0.22;0.20;;;24.50;99.90;;;;;;6258814;22;19999;-77
2022/09/09 11:28:15;;;;;;;2.85;0.30;;;24.40;99.90;;;;;;6254110;22;20000;-74
2022/09/09 11:30:52;;;;;;;0.47;0.30;;;24.40;99.90;;;;;;6259562;22;20748;-75
2022/09/09 11:33:47;;;;;;;0.32;0.20;;;24.50;99.90;;;;;;6262488;22;20327;-73
2022/09/09 11:36:40;;;;;;;0.20;0.20;;;24.60;99.90;;;;;;6259836;22;20611;-73
2022/09/09 11:39:35;;;;;;;0.50;0.30;;;24.60;99.90;;;;;;6261623;22;20003;-73
2022/09/09 11:42:13;;;;;;;1.00;0.30;;;24.80;99.90;;;;;;6262554;22;20039;-72
2022/09/09 11:44:39;;;;;;;0.65;0.20;;;24.90;99.40;;;;;;6261850;22;20447;-75
2022/09/09 11:47:36;;;;;;;0.73;0.30;;;24.80;98.50;;;;;;6260915;22;20004;-76
2022/09/09 11:50:09;;;;;;;1.20;0.50;;;24.80;97.50;;;;;;6258366;22;20719;-78
2022/09/09 11:52:42;;;;;;;0.68;0.38;;;24.70;98.70;;;;;;6262856;22;20337;-73
2022/09/09 11:55:26;;;;;;;1.10;0.68;;;24.70;98.70;;;;;;6262883;22;20004;-74
2022/09/09 11:58:01;;;;;;;0.32;0.25;;;24.70;98.70;;;;;;6261999;22;20019;-73
2022/09/09 12:00:42;;;;;;;0.20;0.17;;;24.70;99.90;;;;;;6260018;22;20333;-72
2022/09/09 12:03:48;;;;;;;0.43;0.20;;;24.90;99.90;;;;;;6261831;22;20007;-73
2022/09/09 12:06:34;;;;;;;0.55;0.28;;;25.10;99.70;;;;;;6260703;22;20012;-72
2022/09/09 12:09:16;;;;;;;3.30;0.30;;;25.30;99.80;;;;;;6214841;22;20011;-66
2022/09/09 12:11:41;;;;;;;0.15;0.15;;;25.40;96.70;;;;;;6264644;22;20380;-67
2022/09/09 12:14:35;;;;;;;0.20;0.20;;;25.40;96.90;;;;;;6260714;22;20014;-67
2022/09/09 12:17:22;;;;;;;0.77;0.30;;;25.60;93.60;;;;;;6262027;22;20098;-66
2022/09/09 12:20:03;;;;;;;0.10;0.10;;;25.70;93.20;;;;;;6259531;22;20020;-66
2022/09/09 12:22:31;;;;;;;0.60;0.20;;;25.80;93.30;;;;;;6259483;22;20492;-66
2022/09/09 12:25:15;;;;;;;0.35;0.30;;;25.80;92.10;;;;;;6261429;22;20134;-66
2022/09/09 12:28:04;;;;;;;4.03;0.38;;;25.80;92.70;;;;;;6266500;22;20037;-75
2022/09/09 12:30:54;;;;;;;1.52;0.25;;;25.90;93.20;;;;;;6264205;22;20181;-75
2022/09/09 12:33:21;;;;;;;1.25;0.20;;;25.90;92.40;;;;;;6263649;22;20084;-73
2022/09/09 12:35:55;;;;;;;0.30;0.30;;;25.90;92.40;;;;;;6262154;22;20011;-72
2022/09/09 12:38:46;;;;;;;0.30;0.20;;;25.80;91.60;;;;;;6264920;22;20020;-73
2022/09/09 12:41:24;;;;;;;0.52;0.28;;;25.90;92.00;;;;;;6260556;22;20011;-74
2022/09/09 12:43:50;;;;;;;1.10;0.15;;;25.90;93.20;;;;;;6261276;22;20007;-73
2022/09/09 12:46:31;;;;;;;0.28;0.17;;;26.00;93.50;;;;;;6262037;22;20007;-73
2022/09/09 12:48:58;;;;;;;2.58;0.15;;;26.00;91.10;;;;;;6262528;22;20003;-74
2022/09/09 12:51:31;;;;;;;0.47;0.13;;;26.10;92.00;;;;;;6263529;22;20321;-75
2022/09/09 12:53:58;;;;;;;0.98;0.22;;;26.00;89.90;;;;;;6263383;22;20583;-74
2022/09/09 12:56:27;;;;;;;0.38;0.20;;;25.90;91.00;;;;;;6265022;22;20068;-75
2022/09/09 12:58:55;;;;;;;0.20;0.20;;;26.00;93.20;;;;;;6263529;22;20761;-74
2022/09/09 13:01:25;;;;;;;1.25;0.60;;;26.10;93.30;;;;;;6256459;22;20008;-74
2022/09/09 13:03:52;;;;;;;0.40;0.20;;;26.20;93.30;;;;;;6261399;22;20012;-74
2022/09/09 13:06:29;;;;;;;1.27;0.43;;;26.20;91.00;;;;;;6260662;22;20120;-74
2022/09/09 13:08:58;;;;;;;6.20;0.90;;;26.20;90.60;;;;;;6265865;22;20004;-74
2022/09/09 13:11:38;;;;;;;0.52;0.20;;;26.10;89.60;;;;;;6259489;22;20003;-74
2022/09/09 13:14:04;;;;;;;1.77;0.30;;;26.00;89.30;;;;;;6264460;22;20307;-76
2022/09/09 13:16:33;;;;;;;2.08;0.47;;;26.00;89.30;;;;;;6261809;22;20039;-75
2022/09/09 13:19:17;;;;;;;0.57;0.17;;;25.90;88.30;;;;;;6265194;22;20210;-75
2022/09/09 13:21:43;;;;;;;0.70;0.20;;;25.90;85.40;;;;;;6264055;22;20035;-74
2022/09/09 13:24:34;;;;;;;0.20;0.20;;;25.80;87.70;;;;;;6262622;22;19995;-75
2022/09/09 13:27:03;;;;;;;0.20;0.20;;;25.80;87.70;;;;;;6258866;22;20023;-66